Terminal Aerodrome Forecast
Issued by NWS

Home | Current Version | Previous Version | Text Only | Print | Product List | Glossary On
Versions: 1 2 3 4 5 6 7 8 9 10 11 12 13 14 15 16 17 18 19 20 21 22 23 24 25 26 27 28 29 30 31 32 33 34 35 36 37 38
000
FTUS41 KBOX 271728
TAFHYA
TAF
KHYA 271728Z 2718/2818 32007KT P6SM OVC015
     FM272100 VRB03KT P6SM OVC050
     FM280800 35005KT 3SM -SHSN OVC035
     FM281300 34009KT 3SM -SHSN OVC035
     FM281500 34012G20KT P6SM BKN050=

USA.gov is the U.S. government's official web portal to all federal, state and local government web resources and services.